Time;durP1;ratioP1;P1;durP2;ratioP2;P2;SDS_P1;SDS_P2;PMS_P1;PMS_P2;Temp;Humidity;BMP_temperature;BMP_pressure;BME280_temperature;BME280_humidity;BME280_pressure;Samples;Min_cycle;Max_cycle;Signal;HPM_P1;HPM_P2
2020/12/14 00:00:01;;;;;;;45.10;25.57;;;6.50;99.90;;;;;;5012954;28;21165;-63
2020/12/14 00:02:46;;;;;;;43.40;23.53;;;6.50;99.90;;;;;;4975985;28;20639;-63
2020/12/14 00:05:30;;;;;;;42.53;24.10;;;6.50;99.90;;;;;;5013876;28;20629;-62
2020/12/14 00:08:15;;;;;;;41.27;22.90;;;6.50;99.90;;;;;;5011220;28;20631;-63
2020/12/14 00:10:59;;;;;;;41.20;22.83;;;6.50;99.90;;;;;;5006986;28;20640;-63
2020/12/14 00:13:46;;;;;;;37.90;22.67;;;6.50;99.90;;;;;;4929321;29;21013;-63
2020/12/14 00:16:31;;;;;;;38.03;22.67;;;6.50;99.90;;;;;;4986374;28;20587;-62
2020/12/14 00:19:15;;;;;;;38.57;23.23;;;6.60;99.90;;;;;;5008888;28;20638;-63
2020/12/14 00:21:59;;;;;;;33.30;20.53;;;6.60;99.90;;;;;;5006370;28;20685;-62
2020/12/14 00:24:44;;;;;;;40.60;22.13;;;6.60;99.90;;;;;;4999185;28;20588;-63
2020/12/14 00:27:28;;;;;;;38.50;20.27;;;6.60;99.90;;;;;;5011964;28;20702;-62
2020/12/14 00:30:13;;;;;;;37.30;21.57;;;6.60;99.90;;;;;;5006565;28;21028;-63
2020/12/14 00:32:58;;;;;;;32.93;20.60;;;6.60;99.90;;;;;;4931765;28;20647;-63
2020/12/14 00:35:42;;;;;;;38.80;22.00;;;6.60;99.90;;;;;;4949178;28;21224;-63
2020/12/14 00:38:27;;;;;;;36.00;22.27;;;6.50;99.90;;;;;;4928674;28;20659;-62
2020/12/14 00:41:18;;;;;;;31.20;20.10;;;6.50;99.90;;;;;;4946966;28;20688;-62
2020/12/14 00:44:03;;;;;;;36.93;21.73;;;6.50;99.90;;;;;;4930655;28;20632;-62
2020/12/14 00:46:48;;;;;;;31.70;22.03;;;6.50;99.90;;;;;;4915684;29;21064;-62
2020/12/14 00:49:36;;;;;;;35.73;22.50;;;6.50;99.90;;;;;;4952171;28;20732;-62
2020/12/14 00:52:21;;;;;;;36.57;21.10;;;6.50;99.90;;;;;;4941013;28;20640;-63
2020/12/14 00:55:05;;;;;;;35.60;21.77;;;6.50;99.90;;;;;;4946598;28;20614;-63
2020/12/14 00:57:50;;;;;;;32.90;22.53;;;6.50;99.90;;;;;;4951967;28;20622;-63
2020/12/14 01:00:34;;;;;;;35.53;22.00;;;6.50;99.90;;;;;;4951942;28;20651;-62
2020/12/14 01:03:19;;;;;;;39.40;21.90;;;6.50;99.90;;;;;;4931830;28;20579;-62
2020/12/14 01:06:03;;;;;;;35.50;22.53;;;6.40;99.90;;;;;;4934971;28;21154;-63
2020/12/14 01:08:48;;;;;;;38.00;22.17;;;6.50;99.90;;;;;;4954552;28;20645;-63
2020/12/14 01:11:33;;;;;;;34.43;20.87;;;6.50;99.90;;;;;;4915124;28;20963;-62
2020/12/14 01:14:17;;;;;;;35.80;22.13;;;6.40;99.90;;;;;;4952585;28;20626;-63
2020/12/14 01:17:01;;;;;;;34.40;22.03;;;6.40;99.90;;;;;;4953775;28;20942;-62
2020/12/14 01:19:46;;;;;;;37.60;21.60;;;6.50;99.90;;;;;;4955866;28;20659;-63
2020/12/14 01:22:30;;;;;;;36.57;21.07;;;6.50;99.90;;;;;;4947471;28;21021;-63
2020/12/14 01:25:15;;;;;;;37.90;23.10;;;6.50;99.90;;;;;;4951849;28;20642;-62
2020/12/14 01:28:03;;;;;;;37.50;20.90;;;6.50;99.90;;;;;;4956241;28;20659;-62
2020/12/14 01:30:47;;;;;;;35.30;19.90;;;6.50;99.90;;;;;;4948455;28;21274;-62
2020/12/14 01:33:32;;;;;;;34.77;20.43;;;6.40;99.90;;;;;;4938871;28;20623;-62
2020/12/14 01:36:16;;;;;;;35.80;20.70;;;6.50;99.90;;;;;;4924158;28;20718;-63
2020/12/14 01:39:01;;;;;;;33.93;20.90;;;6.50;99.90;;;;;;4949355;28;20790;-63
2020/12/14 01:41:45;;;;;;;30.30;18.83;;;6.50;99.90;;;;;;4955198;28;21112;-62
2020/12/14 01:44:30;;;;;;;33.70;21.13;;;6.50;99.90;;;;;;4949139;28;20728;-62
2020/12/14 01:47:19;;;;;;;32.40;19.87;;;6.60;99.90;;;;;;4937252;28;20622;-63
2020/12/14 01:50:07;;;;;;;34.50;21.90;;;6.50;99.90;;;;;;4928652;28;20654;-63
2020/12/14 01:52:56;;;;;;;30.83;19.20;;;6.50;99.90;;;;;;4955222;28;20651;-63
2020/12/14 01:55:42;;;;;;;31.80;21.43;;;6.60;99.90;;;;;;4928608;28;20584;-62
2020/12/14 01:58:26;;;;;;;27.73;19.20;;;6.60;99.90;;;;;;4924964;28;20789;-63
2020/12/14 02:01:10;;;;;;;27.57;19.10;;;6.50;99.90;;;;;;4952274;28;20640;-63
2020/12/14 02:03:55;;;;;;;27.87;20.27;;;6.50;99.90;;;;;;4956538;28;20662;-63
2020/12/14 02:06:39;;;;;;;28.47;19.60;;;6.50;99.90;;;;;;4966560;28;21009;-62
2020/12/14 02:09:24;;;;;;;31.00;20.13;;;6.50;99.90;;;;;;4925710;28;20642;-62
2020/12/14 02:12:08;;;;;;;27.20;19.07;;;6.50;99.90;;;;;;4938535;28;20693;-63
2020/12/14 02:14:56;;;;;;;28.90;20.00;;;6.50;99.90;;;;;;4948829;28;20781;-63
2020/12/14 02:17:42;;;;;;;29.27;18.87;;;6.50;99.90;;;;;;4925398;28;20682;-62
2020/12/14 02:20:26;;;;;;;27.77;19.10;;;6.50;99.90;;;;;;4958898;28;21245;-62
2020/12/14 02:23:10;;;;;;;33.30;20.33;;;6.50;99.90;;;;;;4947933;28;20639;-63
2020/12/14 02:25:55;;;;;;;27.73;19.87;;;6.50;99.90;;;;;;4927120;28;20694;-62
2020/12/14 02:28:39;;;;;;;30.73;19.67;;;6.60;99.90;;;;;;4955310;28;20591;-62
2020/12/14 02:31:24;;;;;;;29.13;19.70;;;6.60;99.90;;;;;;4924572;28;20643;-62
2020/12/14 02:34:09;;;;;;;30.27;19.60;;;6.60;99.90;;;;;;4922224;28;21232;-62
2020/12/14 02:36:53;;;;;;;28.60;18.73;;;6.60;99.90;;;;;;4937687;28;20701;-63
2020/12/14 02:39:39;;;;;;;31.60;20.83;;;6.60;99.90;;;;;;4952918;28;20763;-63
2020/12/14 02:42:25;;;;;;;32.13;21.33;;;6.60;99.90;;;;;;4969827;23;20704;-65
2020/12/14 02:45:09;;;;;;;29.80;19.97;;;6.60;99.90;;;;;;4984162;28;20661;-65
2020/12/14 02:47:54;;;;;;;28.53;19.70;;;6.60;99.90;;;;;;4970920;28;20609;-65
2020/12/14 02:50:38;;;;;;;31.53;20.83;;;6.60;99.90;;;;;;4986184;28;21167;-65
2020/12/14 02:53:23;;;;;;;27.63;19.53;;;6.60;99.90;;;;;;4996860;28;20657;-66
2020/12/14 02:56:09;;;;;;;29.93;20.17;;;6.50;99.90;;;;;;5006028;28;20755;-65
2020/12/14 02:58:54;;;;;;;26.37;18.73;;;6.50;99.90;;;;;;4974999;28;20644;-66
2020/12/14 03:01:39;;;;;;;26.40;19.00;;;6.50;99.90;;;;;;4986693;28;20644;-65
2020/12/14 03:04:24;;;;;;;28.47;20.10;;;6.50;99.90;;;;;;4981058;28;20587;-65
2020/12/14 03:07:09;;;;;;;30.07;20.73;;;6.50;99.90;;;;;;5003416;28;20624;-64
2020/12/14 03:09:53;;;;;;;28.30;20.20;;;6.50;99.90;;;;;;5011272;28;21169;-64
2020/12/14 03:12:38;;;;;;;30.33;20.87;;;6.50;99.90;;;;;;5011198;28;20727;-65
2020/12/14 03:15:22;;;;;;;27.20;19.30;;;6.50;99.90;;;;;;5003264;28;20716;-65
2020/12/14 03:18:06;;;;;;;26.00;19.13;;;6.40;99.90;;;;;;5007241;28;20610;-65
2020/12/14 03:20:51;;;;;;;31.33;19.60;;;6.40;99.90;;;;;;5019519;28;21316;-65
2020/12/14 03:23:35;;;;;;;30.53;19.07;;;6.40;99.90;;;;;;5008488;28;20711;-65
2020/12/14 03:26:20;;;;;;;27.50;18.80;;;6.30;99.90;;;;;;4999953;28;20748;-64
2020/12/14 03:29:06;;;;;;;26.00;19.43;;;6.30;99.90;;;;;;5006883;28;20604;-65
2020/12/14 03:31:50;;;;;;;28.50;19.20;;;6.30;99.90;;;;;;4976904;28;21002;-65
2020/12/14 03:34:38;;;;;;;29.23;18.70;;;6.30;99.90;;;;;;4974247;28;20650;-65
2020/12/14 03:37:26;;;;;;;25.07;17.80;;;6.30;99.90;;;;;;4993385;28;20694;-65
2020/12/14 03:40:10;;;;;;;27.37;19.07;;;6.30;99.90;;;;;;4981994;28;20640;-66
2020/12/14 03:42:55;;;;;;;26.77;19.00;;;6.30;99.90;;;;;;4996843;28;20669;-65
2020/12/14 03:45:39;;;;;;;26.10;17.80;;;6.20;99.90;;;;;;4994948;28;20629;-65
2020/12/14 03:48:24;;;;;;;26.57;17.67;;;6.20;99.90;;;;;;5014005;28;20584;-65
2020/12/14 03:51:10;;;;;;;27.33;19.67;;;6.20;99.90;;;;;;5005384;28;21261;-65
2020/12/14 03:53:55;;;;;;;24.93;17.47;;;6.20;99.90;;;;;;4976038;28;20665;-65
2020/12/14 03:56:41;;;;;;;24.70;16.70;;;6.20;99.90;;;;;;4990083;28;20697;-65
2020/12/14 03:59:26;;;;;;;22.80;17.13;;;6.30;99.90;;;;;;4976732;28;20723;-65
2020/12/14 04:02:10;;;;;;;24.03;16.73;;;6.20;99.90;;;;;;5004806;28;20664;-65
2020/12/14 04:04:55;;;;;;;23.97;17.20;;;6.20;99.90;;;;;;5000697;28;20667;-65
2020/12/14 04:07:39;;;;;;;24.47;17.13;;;6.10;99.90;;;;;;5009624;28;20607;-65
2020/12/14 04:10:27;;;;;;;25.87;17.30;;;6.20;99.90;;;;;;4989202;28;20608;-65
2020/12/14 04:13:12;;;;;;;23.73;16.80;;;6.20;99.90;;;;;;4979374;28;20669;-65
2020/12/14 04:15:57;;;;;;;20.70;15.23;;;6.20;99.90;;;;;;4968550;28;20669;-64
2020/12/14 04:18:41;;;;;;;23.57;15.87;;;6.20;99.90;;;;;;4962936;28;20814;-65
2020/12/14 04:21:26;;;;;;;20.90;15.70;;;6.20;99.90;;;;;;4972434;28;20644;-65
2020/12/14 04:24:10;;;;;;;21.30;16.10;;;6.20;99.90;;;;;;4990095;28;20623;-65
2020/12/14 04:26:55;;;;;;;22.00;15.63;;;6.20;99.90;;;;;;4989674;28;20707;-65
2020/12/14 04:29:40;;;;;;;24.03;15.97;;;6.20;99.90;;;;;;4990492;28;20660;-66
2020/12/14 04:32:24;;;;;;;19.50;15.20;;;6.20;99.90;;;;;;4988642;28;20763;-65
2020/12/14 04:35:10;;;;;;;18.87;14.40;;;6.20;99.90;;;;;;4993945;28;20600;-65
2020/12/14 04:37:54;;;;;;;21.40;15.57;;;6.30;99.90;;;;;;4986091;28;20689;-65
2020/12/14 04:40:39;;;;;;;21.20;15.03;;;6.20;99.90;;;;;;4966393;28;20657;-65
2020/12/14 04:43:24;;;;;;;18.03;14.43;;;6.20;99.90;;;;;;4993254;28;20819;-65
2020/12/14 04:46:09;;;;;;;17.00;13.50;;;6.30;99.90;;;;;;5002695;28;20568;-65
2020/12/14 04:48:54;;;;;;;21.03;13.80;;;6.40;99.90;;;;;;4979856;28;21190;-64
2020/12/14 04:51:39;;;;;;;18.57;13.70;;;6.40;99.90;;;;;;4985744;28;20809;-65
2020/12/14 04:54:25;;;;;;;17.73;13.93;;;6.30;99.90;;;;;;4967806;28;20593;-65
2020/12/14 04:57:13;;;;;;;17.57;13.00;;;6.30;99.90;;;;;;4987956;28;20740;-65
2020/12/14 04:59:57;;;;;;;16.70;14.00;;;6.40;99.90;;;;;;4973996;28;20695;-65
2020/12/14 05:02:44;;;;;;;18.50;13.97;;;6.40;99.90;;;;;;4990410;28;20743;-66
2020/12/14 05:05:34;;;;;;;17.00;13.90;;;6.40;99.90;;;;;;4993669;28;21166;-65
2020/12/14 05:08:25;;;;;;;17.33;13.33;;;6.40;99.90;;;;;;4984114;28;20605;-65
2020/12/14 05:11:10;;;;;;;16.60;12.10;;;6.40;99.90;;;;;;4989335;28;20817;-65
2020/12/14 05:14:14;;;;;;;19.13;13.13;;;6.40;99.90;;;;;;4971265;28;20792;-65
2020/12/14 05:16:59;;;;;;;19.43;13.00;;;6.40;99.90;;;;;;4956650;28;20629;-65
2020/12/14 05:19:43;;;;;;;17.33;12.23;;;6.50;99.90;;;;;;4982737;28;20628;-65
2020/12/14 05:22:28;;;;;;;17.20;12.53;;;6.50;99.90;;;;;;4981891;28;20660;-65
2020/12/14 05:25:18;;;;;;;15.60;12.70;;;6.50;99.90;;;;;;4995107;28;20580;-65
2020/12/14 05:28:14;;;;;;;16.83;12.57;;;6.50;99.90;;;;;;4997900;28;20608;-68
2020/12/14 05:30:59;;;;;;;14.37;11.30;;;6.50;99.90;;;;;;4968950;28;20780;-65
2020/12/14 05:33:43;;;;;;;15.63;12.17;;;6.50;99.90;;;;;;4968480;28;20647;-65
2020/12/14 05:36:28;;;;;;;15.10;11.47;;;6.50;99.90;;;;;;5009213;28;20648;-64
2020/12/14 05:39:24;;;;;;;15.60;11.40;;;6.40;99.90;;;;;;5007004;28;20675;-65
2020/12/14 05:42:15;;;;;;;15.33;11.23;;;6.40;99.90;;;;;;4992245;28;20644;-65
2020/12/14 05:45:13;;;;;;;14.43;11.27;;;6.40;99.90;;;;;;4970542;28;20781;-65
2020/12/14 05:47:58;;;;;;;14.10;11.90;;;6.40;99.90;;;;;;4989025;28;20975;-65
2020/12/14 05:50:50;;;;;;;13.40;10.80;;;6.40;99.90;;;;;;4984887;28;20949;-65
2020/12/14 05:53:39;;;;;;;13.63;10.50;;;6.40;99.90;;;;;;4994586;28;20742;-65
2020/12/14 05:56:25;;;;;;;12.00;10.63;;;6.40;99.90;;;;;;4984294;28;20616;-65
2020/12/14 05:59:11;;;;;;;14.60;10.87;;;6.40;99.90;;;;;;4996627;28;20647;-65
2020/12/14 06:01:56;;;;;;;13.10;10.50;;;6.40;99.90;;;;;;4960380;28;20747;-65
2020/12/14 06:04:41;;;;;;;13.90;10.87;;;6.40;99.90;;;;;;4991321;28;20874;-65
2020/12/14 06:07:27;;;;;;;13.90;10.70;;;6.40;99.90;;;;;;4995122;28;20605;-65
2020/12/14 06:10:13;;;;;;;14.43;10.77;;;6.60;99.90;;;;;;4975205;28;20680;-65
2020/12/14 06:13:07;;;;;;;12.40;10.10;;;6.60;99.90;;;;;;4963239;28;20835;-64
2020/12/14 06:15:55;;;;;;;16.67;10.47;;;6.60;99.90;;;;;;4996366;28;20961;-65
2020/12/14 06:18:42;;;;;;;15.23;10.93;;;6.70;99.90;;;;;;4998341;28;20618;-65
2020/12/14 06:21:45;;;;;;;12.50;10.30;;;6.60;99.90;;;;;;4965503;28;20640;-63
2020/12/14 06:24:31;;;;;;;11.57;9.17;;;6.60;99.90;;;;;;4985376;28;21195;-65
2020/12/14 06:27:19;;;;;;;11.60;9.40;;;6.60;99.90;;;;;;4973013;28;20616;-65
2020/12/14 06:30:29;;;;;;;12.03;9.70;;;6.50;99.90;;;;;;4964139;28;21162;-70
2020/12/14 06:33:14;;;;;;;11.97;9.63;;;6.50;99.90;;;;;;4985047;28;20654;-65
2020/12/14 06:36:14;;;;;;;14.27;10.17;;;6.50;99.90;;;;;;4969172;28;20822;-65
2020/12/14 06:38:59;;;;;;;13.37;10.40;;;6.60;99.90;;;;;;4969109;28;20624;-65
2020/12/14 06:41:43;;;;;;;10.70;8.50;;;6.60;99.90;;;;;;4996580;28;20597;-65
2020/12/14 06:44:28;;;;;;;9.73;8.73;;;6.60;99.90;;;;;;4977562;28;20691;-64
2020/12/14 06:47:14;;;;;;;9.97;8.97;;;6.60;99.90;;;;;;4972492;28;21061;-65
2020/12/14 06:50:22;;;;;;;11.97;9.70;;;6.60;99.90;;;;;;4974324;28;20592;-65
2020/12/14 06:53:47;;;;;;;13.20;9.60;;;6.60;99.90;;;;;;4950682;28;20653;-63
2020/12/14 06:56:31;;;;;;;10.13;7.87;;;6.70;99.90;;;;;;4975072;28;20709;-64
2020/12/14 06:59:29;;;;;;;10.27;8.97;;;6.60;99.90;;;;;;4973539;28;20632;-65
2020/12/14 07:02:14;;;;;;;12.70;9.10;;;6.60;99.90;;;;;;4947269;28;20648;-65
2020/12/14 07:04:59;;;;;;;11.80;9.53;;;6.60;99.90;;;;;;4958304;28;21397;-65
2020/12/14 07:07:52;;;;;;;12.13;9.00;;;6.50;99.90;;;;;;4976183;28;20627;-65
2020/12/14 07:10:38;;;;;;;12.93;9.70;;;6.60;99.90;;;;;;4968822;28;20601;-65
2020/12/14 07:13:31;;;;;;;10.57;9.00;;;6.60;99.90;;;;;;4956183;28;21239;-65
2020/12/14 07:16:17;;;;;;;10.33;8.63;;;6.60;99.90;;;;;;4970264;28;20605;-66
2020/12/14 07:19:05;;;;;;;12.30;9.33;;;6.50;99.90;;;;;;4936372;28;21144;-66
2020/12/14 07:21:57;;;;;;;10.77;9.10;;;6.50;99.90;;;;;;4965001;28;20705;-65
2020/12/14 07:24:43;;;;;;;10.77;9.30;;;6.50;99.90;;;;;;4985816;28;20947;-64
2020/12/14 07:27:29;;;;;;;11.30;9.50;;;6.50;99.90;;;;;;4966110;28;20734;-65
2020/12/14 07:30:14;;;;;;;10.50;8.67;;;6.60;99.90;;;;;;4959966;28;20628;-65
2020/12/14 07:32:59;;;;;;;10.77;9.50;;;6.70;99.90;;;;;;4972742;28;21002;-66
2020/12/14 07:35:44;;;;;;;11.13;8.50;;;6.70;99.90;;;;;;4970604;28;20656;-64
2020/12/14 07:38:28;;;;;;;10.93;8.73;;;6.70;99.90;;;;;;4992479;28;20600;-65
2020/12/14 07:41:13;;;;;;;9.80;8.30;;;6.70;99.90;;;;;;4996586;28;20648;-65
2020/12/14 07:43:59;;;;;;;11.07;9.03;;;6.70;99.90;;;;;;4974024;28;20672;-65
2020/12/14 07:46:44;;;;;;;11.30;9.10;;;6.70;99.90;;;;;;4969106;28;20647;-65
2020/12/14 07:49:29;;;;;;;11.77;9.00;;;6.70;99.90;;;;;;4992506;28;20706;-65
2020/12/14 07:52:26;;;;;;;9.93;8.77;;;6.70;99.90;;;;;;4971268;28;20640;-65
2020/12/14 07:55:12;;;;;;;9.67;8.53;;;6.80;99.90;;;;;;4979528;28;20609;-65
2020/12/14 07:57:56;;;;;;;13.93;8.63;;;6.70;99.90;;;;;;4964319;28;20675;-65
2020/12/14 08:00:40;;;;;;;10.80;8.30;;;6.80;99.90;;;;;;4979726;28;20645;-65
2020/12/14 08:03:25;;;;;;;10.03;8.00;;;6.70;99.90;;;;;;4982668;28;20648;-65
2020/12/14 08:06:19;;;;;;;10.30;8.53;;;6.70;99.90;;;;;;4986492;28;20585;-65
2020/12/14 08:09:06;;;;;;;8.40;7.50;;;6.80;99.90;;;;;;4998439;28;20565;-65
2020/12/14 08:11:51;;;;;;;10.77;8.87;;;6.80;99.90;;;;;;4969732;28;20639;-65
2020/12/14 08:14:36;;;;;;;9.63;8.60;;;6.80;99.90;;;;;;4998870;28;20577;-65
2020/12/14 08:17:21;;;;;;;10.43;9.17;;;6.80;99.90;;;;;;4964404;28;20612;-65
2020/12/14 08:20:30;;;;;;;9.40;8.40;;;6.80;99.90;;;;;;4966847;28;20746;-66
2020/12/14 08:23:19;;;;;;;9.13;8.00;;;6.90;99.90;;;;;;4969909;28;20699;-65
2020/12/14 08:26:10;;;;;;;10.33;8.43;;;6.80;99.90;;;;;;4971586;28;20683;-65
2020/12/14 08:29:02;;;;;;;9.33;8.30;;;6.90;99.90;;;;;;4965732;28;20608;-65
2020/12/14 08:31:49;;;;;;;9.60;7.87;;;6.90;99.90;;;;;;4965324;28;20712;-65
2020/12/14 08:34:36;;;;;;;7.90;7.10;;;7.00;99.90;;;;;;4963671;28;20585;-69
2020/12/14 08:37:20;;;;;;;8.23;7.40;;;7.00;99.90;;;;;;4970919;28;20635;-64
2020/12/14 08:40:07;;;;;;;11.43;7.30;;;7.00;99.90;;;;;;4977711;28;20640;-65
2020/12/14 08:42:54;;;;;;;9.50;7.73;;;6.90;99.90;;;;;;5003662;28;20660;-65
2020/12/14 08:46:11;;;;;;;8.77;7.87;;;6.90;99.90;;;;;;5015185;23;20751;-68
2020/12/14 08:48:59;;;;;;;8.70;7.80;;;6.90;99.90;;;;;;5019161;28;20576;-68
2020/12/14 08:51:48;;;;;;;10.40;8.10;;;6.90;99.90;;;;;;5022392;28;21248;-68
2020/12/14 08:54:32;;;;;;;9.73;7.70;;;6.90;99.90;;;;;;5021886;28;20612;-68
2020/12/14 08:57:28;;;;;;;9.70;7.43;;;6.90;99.90;;;;;;5034033;28;20591;-69
2020/12/14 09:00:13;;;;;;;8.00;7.10;;;6.90;99.90;;;;;;5010008;28;20639;-68
2020/12/14 09:03:02;;;;;;;9.33;8.33;;;6.90;99.90;;;;;;5009003;28;20624;-68
2020/12/14 09:05:47;;;;;;;8.27;7.47;;;6.90;99.90;;;;;;5009606;28;20631;-69
2020/12/14 09:08:31;;;;;;;9.70;7.90;;;7.00;99.90;;;;;;5034016;28;20595;-69
2020/12/14 09:11:16;;;;;;;8.40;7.10;;;7.00;99.90;;;;;;5033177;28;21234;-69
2020/12/14 09:14:07;;;;;;;7.70;6.63;;;7.00;99.90;;;;;;5004552;28;20616;-69
2020/12/14 09:16:55;;;;;;;8.23;7.30;;;7.20;99.90;;;;;;5003074;28;20707;-70
2020/12/14 09:19:40;;;;;;;8.97;7.03;;;7.00;99.90;;;;;;5016492;28;20612;-70
2020/12/14 09:22:25;;;;;;;9.03;6.90;;;7.00;99.90;;;;;;5009294;28;20623;-69
2020/12/14 09:25:10;;;;;;;8.30;6.70;;;7.00;99.90;;;;;;5006271;28;21317;-69
2020/12/14 09:27:54;;;;;;;8.90;7.27;;;7.10;99.90;;;;;;5008957;28;20620;-69
2020/12/14 09:30:41;;;;;;;7.10;6.40;;;7.10;99.90;;;;;;5014573;28;21013;-68
2020/12/14 09:33:28;;;;;;;8.03;6.67;;;7.20;99.90;;;;;;5002074;28;20625;-69
2020/12/14 09:36:16;;;;;;;6.53;5.93;;;7.20;99.90;;;;;;4985404;28;20647;-69
2020/12/14 09:39:10;;;;;;;7.30;6.60;;;7.20;99.90;;;;;;4984166;28;20620;-68
2020/12/14 09:41:56;;;;;;;9.50;6.20;;;7.20;99.90;;;;;;4983837;28;20654;-69
2020/12/14 09:44:41;;;;;;;7.20;6.50;;;7.40;99.90;;;;;;4998929;28;20616;-68
2020/12/14 09:47:25;;;;;;;7.73;6.63;;;7.30;99.90;;;;;;4997723;28;20648;-69
2020/12/14 09:50:09;;;;;;;6.90;5.87;;;7.40;99.90;;;;;;5024729;28;21251;-70
2020/12/14 09:52:54;;;;;;;8.87;6.37;;;7.50;99.90;;;;;;5011357;28;20891;-70
2020/12/14 09:55:45;;;;;;;7.57;6.60;;;7.50;99.90;;;;;;5032811;28;20671;-69
2020/12/14 09:58:30;;;;;;;7.23;6.50;;;7.50;99.90;;;;;;5025883;28;20691;-69
2020/12/14 10:01:18;;;;;;;7.53;6.23;;;7.50;99.90;;;;;;5019800;28;21260;-69
2020/12/14 10:04:02;;;;;;;7.53;6.83;;;7.60;99.90;;;;;;5022023;28;20635;-69
2020/12/14 10:06:48;;;;;;;7.27;6.60;;;7.70;99.90;;;;;;5011026;28;20638;-69
2020/12/14 10:09:32;;;;;;;9.47;6.70;;;7.70;99.90;;;;;;5037969;28;20623;-69
2020/12/14 10:12:16;;;;;;;7.97;6.23;;;7.60;99.90;;;;;;5009532;28;21018;-68
2020/12/14 10:15:05;;;;;;;7.77;5.93;;;7.50;99.90;;;;;;5036138;28;21249;-68
2020/12/14 10:17:50;;;;;;;7.90;6.27;;;7.50;99.90;;;;;;5010687;28;20670;-70
2020/12/14 10:20:35;;;;;;;8.83;6.93;;;7.50;99.90;;;;;;5008951;28;20727;-68
2020/12/14 10:23:19;;;;;;;6.20;5.60;;;7.50;99.90;;;;;;5015029;28;20604;-68
2020/12/14 10:26:05;;;;;;;8.93;6.37;;;7.50;99.90;;;;;;5010481;28;21244;-69
2020/12/14 10:28:50;;;;;;;7.33;6.10;;;7.50;99.90;;;;;;5034016;28;20588;-69
2020/12/14 10:31:34;;;;;;;7.77;5.60;;;7.50;99.90;;;;;;5008137;28;20649;-69
2020/12/14 10:34:19;;;;;;;8.73;6.70;;;7.40;99.90;;;;;;5029028;28;20632;-69
2020/12/14 10:37:04;;;;;;;8.67;6.97;;;7.40;99.90;;;;;;5021978;28;20650;-68
2020/12/14 10:39:48;;;;;;;7.53;6.40;;;7.50;99.90;;;;;;5004556;28;22635;-68
2020/12/14 10:42:34;;;;;;;6.67;6.00;;;7.40;99.90;;;;;;5036274;28;21020;-68
2020/12/14 10:45:18;;;;;;;6.83;6.10;;;7.40;99.90;;;;;;5007832;28;20685;-68
2020/12/14 10:48:04;;;;;;;9.33;6.90;;;7.50;99.90;;;;;;5006794;28;20591;-68
2020/12/14 10:50:48;;;;;;;8.17;7.20;;;7.40;99.90;;;;;;5009328;28;20634;-68
2020/12/14 10:53:33;;;;;;;8.27;6.00;;;7.40;99.90;;;;;;5025936;28;20603;-69
2020/12/14 10:56:17;;;;;;;6.33;5.23;;;7.40;99.90;;;;;;5011970;28;20670;-69
2020/12/14 10:59:02;;;;;;;6.50;5.67;;;7.50;99.90;;;;;;5012197;28;20947;-68
2020/12/14 11:01:50;;;;;;;6.47;5.87;;;7.60;99.90;;;;;;5015914;28;20659;-68
2020/12/14 11:04:36;;;;;;;5.70;5.10;;;7.60;99.90;;;;;;5011751;28;21127;-68
2020/12/14 11:07:20;;;;;;;5.97;5.37;;;7.50;99.90;;;;;;5022505;28;21050;-68
2020/12/14 11:10:09;;;;;;;6.17;5.60;;;7.50;99.90;;;;;;5024332;28;21290;-68
2020/12/14 11:12:54;;;;;;;5.93;5.20;;;7.50;99.90;;;;;;5011116;28;20786;-68
2020/12/14 11:15:39;;;;;;;7.07;6.10;;;7.50;99.90;;;;;;5005005;28;21015;-69
2020/12/14 11:18:23;;;;;;;5.80;5.20;;;7.50;99.90;;;;;;5004806;28;20596;-68
2020/12/14 11:21:07;;;;;;;6.73;5.43;;;7.60;99.90;;;;;;5008046;28;20817;-68
2020/12/14 11:23:52;;;;;;;6.60;5.90;;;7.50;99.90;;;;;;5006732;28;21037;-68
2020/12/14 11:26:36;;;;;;;6.67;5.57;;;7.50;99.90;;;;;;5011908;28;20651;-68
2020/12/14 11:29:21;;;;;;;5.77;5.20;;;7.40;99.90;;;;;;5009490;28;20670;-69
2020/12/14 11:32:05;;;;;;;6.70;4.97;;;7.50;99.90;;;;;;5004610;28;20651;-69
2020/12/14 11:34:50;;;;;;;5.33;4.83;;;7.50;99.90;;;;;;5032861;28;20634;-68
2020/12/14 11:37:35;;;;;;;6.27;5.67;;;7.50;99.90;;;;;;5007506;28;20627;-67
2020/12/14 11:40:19;;;;;;;6.57;5.73;;;7.50;99.90;;;;;;5010089;28;20651;-69
2020/12/14 11:43:04;;;;;;;6.20;5.60;;;7.60;99.90;;;;;;5007419;28;20635;-70
2020/12/14 11:45:48;;;;;;;6.00;5.50;;;7.60;99.90;;;;;;5008749;28;20662;-68
2020/12/14 11:48:33;;;;;;;6.60;5.47;;;7.60;99.90;;;;;;5012776;28;22604;-69
2020/12/14 11:51:18;;;;;;;5.97;5.30;;;7.70;99.90;;;;;;5004897;28;21012;-68
2020/12/14 11:54:03;;;;;;;8.10;7.30;;;7.70;99.90;;;;;;5006194;28;20683;-68
2020/12/14 11:56:48;;;;;;;8.33;6.70;;;7.70;99.90;;;;;;5009723;28;20690;-69
2020/12/14 11:59:32;;;;;;;7.23;5.77;;;7.70;99.90;;;;;;5002411;28;20600;-68
2020/12/14 12:02:18;;;;;;;6.83;5.83;;;7.80;99.90;;;;;;5007344;28;20687;-68
2020/12/14 12:05:03;;;;;;;7.43;6.07;;;7.80;99.90;;;;;;5008530;28;20895;-68
2020/12/14 12:07:47;;;;;;;6.63;6.03;;;7.80;99.90;;;;;;5001201;28;21528;-68
2020/12/14 12:10:33;;;;;;;8.77;5.80;;;7.80;99.90;;;;;;5008925;28;20639;-69
2020/12/14 12:13:18;;;;;;;6.20;5.60;;;7.90;99.90;;;;;;5008254;28;20747;-68
2020/12/14 12:16:05;;;;;;;6.30;5.70;;;7.80;99.90;;;;;;5008148;28;21013;-69
2020/12/14 12:18:50;;;;;;;6.50;5.90;;;7.90;99.90;;;;;;5015011;28;20592;-68
2020/12/14 12:21:34;;;;;;;6.80;6.10;;;7.80;99.90;;;;;;4997812;28;20685;-70
2020/12/14 12:24:21;;;;;;;7.30;6.07;;;7.90;99.90;;;;;;5024252;28;21236;-69
2020/12/14 12:27:06;;;;;;;6.57;5.90;;;7.90;99.90;;;;;;5002033;28;20734;-68
2020/12/14 12:29:50;;;;;;;6.77;5.93;;;8.00;99.90;;;;;;5006492;28;21114;-68
2020/12/14 12:32:35;;;;;;;6.97;6.20;;;8.00;99.90;;;;;;4988512;28;20660;-68
2020/12/14 12:35:19;;;;;;;6.97;6.20;;;8.00;99.90;;;;;;5006707;28;20732;-68
2020/12/14 12:38:04;;;;;;;7.67;6.33;;;8.00;99.90;;;;;;4988619;28;21005;-68
2020/12/14 12:40:49;;;;;;;8.97;6.20;;;8.00;99.90;;;;;;4985263;28;20668;-69
2020/12/14 12:43:33;;;;;;;6.83;6.07;;;8.00;99.90;;;;;;5031576;28;21036;-68
2020/12/14 12:46:18;;;;;;;6.73;6.03;;;8.10;99.90;;;;;;5004337;28;20675;-68
2020/12/14 12:49:05;;;;;;;7.17;6.40;;;8.10;99.90;;;;;;5033587;28;20611;-69
2020/12/14 12:51:54;;;;;;;7.37;6.00;;;8.20;99.90;;;;;;5034268;28;21232;-70
2020/12/14 12:54:39;;;;;;;7.53;6.80;;;8.10;99.90;;;;;;5009557;28;20602;-69
2020/12/14 12:57:24;;;;;;;7.80;6.00;;;8.10;99.90;;;;;;5023348;28;20600;-69
2020/12/14 13:00:08;;;;;;;7.40;6.40;;;8.10;99.90;;;;;;5004413;28;20718;-69
2020/12/14 13:02:53;;;;;;;6.93;6.33;;;8.10;99.90;;;;;;5006197;28;20702;-69
2020/12/14 13:05:40;;;;;;;6.80;5.80;;;8.20;99.90;;;;;;5002967;28;20650;-68
2020/12/14 13:08:25;;;;;;;7.00;6.30;;;8.20;99.90;;;;;;5003686;28;20608;-68
2020/12/14 13:11:12;;;;;;;7.33;6.10;;;8.20;99.90;;;;;;5014210;28;21225;-69
2020/12/14 13:13:56;;;;;;;6.17;5.60;;;8.20;99.90;;;;;;5005246;28;20635;-69
2020/12/14 13:16:41;;;;;;;6.43;5.80;;;8.30;99.90;;;;;;5006833;28;20667;-70
2020/12/14 13:19:26;;;;;;;6.03;5.40;;;8.40;99.90;;;;;;5007060;28;21317;-68
2020/12/14 13:22:11;;;;;;;7.20;5.93;;;8.40;99.90;;;;;;5003882;28;20658;-68
2020/12/14 13:24:56;;;;;;;7.30;6.27;;;8.40;99.90;;;;;;5006980;28;20620;-69
2020/12/14 13:27:43;;;;;;;6.83;6.13;;;8.40;99.90;;;;;;5037891;28;20678;-68
2020/12/14 13:30:28;;;;;;;7.60;6.80;;;8.40;99.90;;;;;;5003049;28;20619;-69
2020/12/14 13:33:13;;;;;;;7.53;6.37;;;8.40;99.90;;;;;;5008274;28;20646;-68
2020/12/14 13:35:58;;;;;;;9.00;7.03;;;8.50;99.90;;;;;;5010623;28;21040;-68
2020/12/14 13:38:42;;;;;;;7.07;6.37;;;8.50;99.90;;;;;;5000720;28;20631;-69
2020/12/14 13:41:28;;;;;;;6.67;5.97;;;8.60;99.90;;;;;;5036391;28;20643;-70
2020/12/14 13:44:13;;;;;;;6.83;6.13;;;8.60;99.90;;;;;;5002454;28;20600;-70
2020/12/14 13:47:02;;;;;;;11.43;6.07;;;8.70;99.90;;;;;;5009605;28;20690;-69
2020/12/14 13:49:46;;;;;;;6.77;6.17;;;8.70;99.90;;;;;;5005174;28;20611;-69
2020/12/14 13:52:31;;;;;;;7.33;5.90;;;8.80;99.90;;;;;;4985793;28;20644;-69
2020/12/14 13:55:16;;;;;;;5.87;5.30;;;8.80;99.90;;;;;;4991423;28;20727;-69
2020/12/14 13:58:00;;;;;;;6.30;5.70;;;8.80;99.90;;;;;;5001606;28;20648;-69
2020/12/14 14:00:45;;;;;;;6.27;5.70;;;8.90;99.90;;;;;;4986442;28;20640;-70
2020/12/14 14:03:30;;;;;;;5.30;4.80;;;8.90;99.90;;;;;;4989362;28;20672;-70
2020/12/14 14:06:14;;;;;;;7.53;5.87;;;9.00;99.90;;;;;;4984358;28;21273;-69
2020/12/14 14:08:59;;;;;;;5.13;4.73;;;8.90;99.90;;;;;;4991712;28;20647;-68
2020/12/14 14:11:51;;;;;;;5.50;4.67;;;9.00;99.90;;;;;;4980514;28;21265;-68
2020/12/14 14:14:36;;;;;;;5.70;5.13;;;9.00;99.90;;;;;;4990088;28;20988;-68
2020/12/14 14:17:20;;;;;;;5.53;5.00;;;9.00;99.90;;;;;;5002467;28;20628;-68
2020/12/14 14:20:06;;;;;;;5.90;5.07;;;9.10;99.90;;;;;;4982833;28;20606;-69
2020/12/14 14:22:50;;;;;;;5.73;5.00;;;9.10;99.90;;;;;;4979853;28;20653;-70